Time;durP1;ratioP1;P1;durP2;ratioP2;P2;SDS_P1;SDS_P2;PMS_P1;PMS_P2;Temp;Humidity;BMP_temperature;BMP_pressure;BME280_temperature;BME280_humidity;BME280_pressure;Samples;Min_cycle;Max_cycle;Signal;HPM_P1;HPM_P2
2021/09/16 07:16:36;;;;;;;7.78;1.77;;;;;;;15.25;84.00;101823.56;5058777;27;20929;-75
2021/09/16 07:19:01;;;;;;;2.97;1.13;;;;;;;15.33;83.56;101831.63;5065140;28;20024;-76
2021/09/16 07:21:27;;;;;;;5.28;1.20;;;;;;;15.35;83.42;101824.56;5059340;28;20036;-75
2021/09/16 07:23:53;;;;;;;2.35;1.10;;;;;;;15.41;83.07;101831.69;5058009;28;20029;-75
2021/09/16 07:26:18;;;;;;;2.90;1.20;;;;;;;15.47;82.19;101827.34;5057407;28;20730;-78
2021/09/16 07:28:43;;;;;;;6.28;1.58;;;;;;;15.56;81.85;101828.34;5060770;28;20025;-75
2021/09/16 07:31:09;;;;;;;6.10;1.25;;;;;;;15.61;82.27;101830.19;5059052;28;20065;-75
2021/09/16 07:33:34;;;;;;;3.83;1.23;;;;;;;15.68;81.53;101828.47;5058095;28;20064;-75
2021/09/16 07:36:00;;;;;;;4.65;1.13;;;;;;;15.82;82.22;101831.34;5059265;28;20079;-73
2021/09/16 07:38:25;;;;;;;7.35;2.45;;;;;;;16.02;80.19;101829.78;5055237;28;20032;-73
2021/09/16 07:40:51;;;;;;;9.02;1.55;;;;;;;16.23;77.10;101827.31;5060205;28;20094;-74
2021/09/16 07:43:17;;;;;;;4.30;1.10;;;;;;;16.36;76.21;101823.88;5061070;28;20047;-73
2021/09/16 07:45:42;;;;;;;4.93;0.90;;;;;;;16.38;77.02;101832.75;5059790;28;20505;-75
2021/09/16 07:48:08;;;;;;;4.03;1.10;;;;;;;16.35;76.54;101828.28;5063129;28;20032;-75
2021/09/16 07:50:33;;;;;;;3.13;0.93;;;;;;;16.32;77.44;101836.25;5059518;28;20591;-76
2021/09/16 07:52:59;;;;;;;4.68;1.42;;;;;;;16.28;78.18;101836.22;5056684;28;20431;-75
2021/09/16 07:55:25;;;;;;;6.05;1.27;;;;;;;16.29;78.70;101846.84;5056317;28;20385;-75
2021/09/16 07:57:50;;;;;;;2.67;1.40;;;;;;;16.33;79.09;101842.44;5061933;28;20028;-75
2021/09/16 08:00:15;;;;;;;6.10;1.20;;;;;;;16.48;77.59;101839.00;5054093;28;20062;-74
2021/09/16 08:02:49;;;;;;;5.53;1.00;;;;;;;16.60;78.22;101841.75;5055412;28;20032;-74
2021/09/16 08:05:16;;;;;;;6.50;1.17;;;;;;;16.85;77.51;101850.81;5059939;28;20033;-75
2021/09/16 08:07:41;;;;;;;7.63;1.17;;;;;;;17.16;75.77;101835.09;5062368;28;20039;-74
2021/09/16 08:10:07;;;;;;;6.78;1.30;;;;;;;17.31;74.27;101833.38;5060205;28;20029;-74
2021/09/16 08:12:33;;;;;;;4.22;0.90;;;;;;;17.33;74.45;101836.94;5053143;28;20060;-74
2021/09/16 08:14:59;;;;;;;6.47;1.50;;;;;;;17.29;74.12;101851.09;5055657;28;20164;-75
2021/09/16 08:17:25;;;;;;;4.38;1.00;;;;;;;17.14;74.22;101838.63;5058163;28;20082;-73
2021/09/16 08:19:50;;;;;;;3.47;1.00;;;;;;;17.05;74.19;101846.53;5061951;28;20032;-73
2021/09/16 08:22:22;;;;;;;4.40;1.02;;;;;;;17.00;74.29;101862.47;5059247;28;20036;-75
2021/09/16 08:24:47;;;;;;;5.47;1.10;;;;;;;17.03;73.85;101851.84;5055966;28;20036;-75
2021/09/16 08:27:16;;;;;;;4.85;1.30;;;;;;;17.16;73.87;101851.03;5045967;28;20037;-74
2021/09/16 08:29:41;;;;;;;5.00;1.10;;;;;;;17.37;73.52;101852.03;5043930;28;20029;-74
2021/09/16 08:32:07;;;;;;;4.15;1.13;;;;;;;17.55;74.08;101855.66;5043455;28;20078;-73
2021/09/16 08:34:35;;;;;;;4.15;1.40;;;;;;;17.73;72.67;101853.06;5045369;28;20482;-74
2021/09/16 08:37:01;;;;;;;4.55;0.90;;;;;;;17.72;72.32;101848.63;5045983;28;20565;-74
2021/09/16 08:39:27;;;;;;;4.82;1.00;;;;;;;17.71;72.65;101860.13;5045619;28;20029;-73
2021/09/16 08:41:52;;;;;;;2.90;1.05;;;;;;;17.84;73.30;101872.59;5044237;28;20052;-74
2021/09/16 08:44:18;;;;;;;5.32;1.08;;;;;;;17.98;71.13;101858.47;5057563;28;20090;-76
2021/09/16 08:46:44;;;;;;;6.07;0.88;;;;;;;18.13;71.18;101863.81;5049641;28;20032;-74
2021/09/16 08:49:09;;;;;;;12.48;1.65;;;;;;;18.24;71.49;101863.81;5043555;28;20041;-76
2021/09/16 08:51:38;;;;;;;3.28;0.88;;;;;;;18.36;70.82;101869.16;5045231;28;20040;-74
2021/09/16 08:54:04;;;;;;;3.80;1.58;;;;;;;18.47;68.88;101861.19;5048922;28;20029;-75
2021/09/16 08:56:29;;;;;;;4.88;0.80;;;;;;;18.63;70.04;101879.84;5042995;28;20048;-75
2021/09/16 08:59:01;;;;;;;4.78;1.20;;;;;;;18.66;68.05;101867.38;5045766;28;20845;-75
2021/09/16 09:01:26;;;;;;;3.78;0.90;;;;;;;18.78;68.54;101863.84;5039796;28;20081;-75
2021/09/16 09:03:52;;;;;;;3.83;0.90;;;;;;;18.95;68.86;101870.94;5044539;28;20048;-74
2021/09/16 09:06:44;;;;;;;14.02;1.65;;;;;;;19.03;68.49;101869.16;5047432;28;20098;-74
2021/09/16 09:09:21;;;;;;;10.82;1.15;;;;;;;19.04;69.10;101876.28;5041492;28;20072;-74
2021/09/16 09:11:54;;;;;;;2.13;0.88;;;;;;;18.90;67.06;101860.31;5044818;28;20052;-75
2021/09/16 09:14:21;;;;;;;2.80;1.08;;;;;;;18.65;68.50;101870.97;5047169;28;20119;-74
2021/09/16 09:16:47;;;;;;;3.55;1.02;;;;;;;18.49;68.84;101877.19;5047024;28;20379;-73
2021/09/16 09:19:17;;;;;;;4.15;1.10;;;;;;;18.40;69.72;101880.72;5047264;28;20056;-75
2021/09/16 09:21:44;;;;;;;3.50;1.10;;;;;;;18.43;68.94;101882.50;5045141;28;20043;-75
2021/09/16 09:24:09;;;;;;;7.35;1.02;;;;;;;18.49;67.59;101871.88;5041257;28;20032;-74
2021/09/16 09:26:36;;;;;;;2.67;0.70;;;;;;;18.68;68.19;101867.41;5037051;28;20036;-73
2021/09/16 09:29:08;;;;;;;2.50;0.80;;;;;;;18.86;68.06;101867.38;5033713;28;20028;-74
2021/09/16 09:31:53;;;;;;;6.57;1.35;;;;;;;19.00;68.89;101866.50;5041178;28;20021;-73
2021/09/16 09:34:25;;;;;;;3.67;1.00;;;;;;;19.32;66.13;101866.41;5038132;28;20029;-75
2021/09/16 09:36:52;;;;;;;3.50;1.10;;;;;;;19.68;65.44;101868.94;5043838;28;20050;-75
2021/09/16 09:39:26;;;;;;;3.92;1.02;;;;;;;20.50;63.00;101865.75;5042184;28;20024;-74
2021/09/16 09:41:52;;;;;;;3.40;0.90;;;;;;;21.44;61.11;101861.25;5043107;28;20098;-75
2021/09/16 09:44:18;;;;;;;4.47;0.65;;;;;;;21.53;62.22;101867.41;5045028;28;20543;-75
2021/09/16 09:46:54;;;;;;;2.50;0.90;;;;;;;21.77;58.10;101853.69;5042650;28;20032;-74
2021/09/16 09:49:24;;;;;;;3.13;1.00;;;;;;;22.17;54.75;101842.41;5046616;28;20025;-72
2021/09/16 09:51:56;;;;;;;5.25;1.02;;;;;;;23.10;54.19;101851.50;5042570;28;20032;-75
2021/09/16 09:54:24;;;;;;;2.92;1.00;;;;;;;23.73;52.25;101844.84;5045718;28;20031;-74
2021/09/16 09:57:14;;;;;;;4.90;1.60;;;;;;;23.90;50.13;101856.13;5044804;28;20035;-76
2021/09/16 10:00:11;;;;;;;2.58;0.90;;;;;;;24.27;49.77;101854.38;5044155;28;20037;-75
2021/09/16 10:02:54;;;;;;;2.97;0.65;;;;;;;24.68;48.28;101844.38;5047531;28;20044;-76
2021/09/16 10:05:27;;;;;;;2.97;0.70;;;;;;;25.57;46.50;101854.47;5045298;28;20053;-75
2021/09/16 10:07:54;;;;;;;1.00;0.50;;;;;;;25.84;44.60;101854.56;5043340;28;20060;-76
2021/09/16 10:10:20;;;;;;;2.88;1.13;;;;;;;26.19;44.02;101844.44;5042545;28;20045;-75
2021/09/16 10:12:47;;;;;;;3.78;1.00;;;;;;;26.84;42.67;101846.78;5042926;28;20029;-75
2021/09/16 10:15:18;;;;;;;1.20;0.68;;;;;;;26.81;43.28;101839.69;5043507;28;20567;-74
2021/09/16 10:17:45;;;;;;;1.65;0.80;;;;;;;26.98;40.96;101836.38;5043839;28;20425;-77
2021/09/16 10:20:14;;;;;;;3.90;1.45;;;;;;;27.44;40.18;101836.47;5042470;28;20033;-76
2021/09/16 10:22:40;;;;;;;1.10;0.60;;;;;;;28.12;39.47;101836.53;5048045;28;21713;-75
2021/09/16 10:25:07;;;;;;;2.05;0.70;;;;;;;27.87;39.08;101825.78;5046761;28;20506;-76
2021/09/16 10:27:36;;;;;;;2.13;1.05;;;;;;;28.10;38.44;101819.47;5041834;28;20032;-77
2021/09/16 10:30:30;;;;;;;2.60;0.80;;;;;;;27.59;41.56;101827.78;5041990;28;20025;-75
2021/09/16 10:33:14;;;;;;;;;;;;;;;27.50;40.32;101828.13;5054737;28;20046;-76
2021/09/16 10:35:46;;;;;;;2.60;0.80;;;;;;;27.48;40.80;101832.72;5055704;28;19986;-75
2021/09/16 10:38:22;;;;;;;2.35;0.80;;;;;;;27.86;39.56;101833.03;5059149;28;20535;-74
2021/09/16 10:41:08;;;;;;;2.83;1.05;;;;;;;28.79;37.31;101839.16;5047975;28;20123;-76
2021/09/16 10:43:33;;;;;;;2.55;0.80;;;;;;;28.42;37.75;101841.59;5036987;28;20025;-76
2021/09/16 10:46:27;;;;;;;2.50;0.98;;;;;;;28.84;37.03;101843.41;5042525;28;20033;-75
2021/09/16 10:48:57;;;;;;;4.50;0.90;;;;;;;28.91;36.21;101838.59;5040624;28;20025;-76
2021/09/16 10:51:40;;;;;;;2.33;1.02;;;;;;;29.06;35.71;101828.88;5043227;28;20025;-76
2021/09/16 10:54:27;;;;;;;3.83;1.10;;;;;;;29.25;36.53;101834.38;5038982;28;20158;-75
2021/09/16 10:57:01;;;;;;;1.77;1.23;;;;;;;28.85;36.67;101839.72;5046007;28;20070;-76
2021/09/16 10:59:48;;;;;;;3.88;1.15;;;;;;;29.08;36.69;101835.09;5047589;28;20036;-77
2021/09/16 11:02:25;;;;;;;2.38;1.00;;;;;;;29.46;34.85;101834.31;5043933;28;20490;-77
2021/09/16 11:04:54;;;;;;;2.92;1.15;;;;;;;29.07;36.13;101830.63;5047448;28;20111;-77
2021/09/16 11:07:31;;;;;;;1.58;1.10;;;;;;;28.48;36.56;101825.06;5036575;28;20036;-75
2021/09/16 11:10:15;;;;;;;2.15;1.15;;;;;;;26.50;40.83;101829.94;5049154;28;20166;-75
2021/09/16 11:12:41;;;;;;;3.83;1.10;;;;;;;26.20;41.74;101840.81;5046875;28;20052;-75
2021/09/16 11:15:11;;;;;;;1.73;0.85;;;;;;;26.82;42.02;101841.44;5047958;28;20045;-76
2021/09/16 11:17:37;;;;;;;2.75;1.30;;;;;;;27.61;39.41;101837.66;5044129;28;20580;-76
2021/09/16 11:20:04;;;;;;;1.55;0.90;;;;;;;28.38;38.16;101845.38;5038423;28;20033;-76
2021/09/16 11:22:30;;;;;;;2.53;0.90;;;;;;;28.70;37.89;101832.28;5035076;28;20026;-77
2021/09/16 11:24:58;;;;;;;5.18;1.35;;;;;;;28.44;37.59;101834.28;5040468;28;20043;-75
2021/09/16 11:27:29;;;;;;;2.30;1.17;;;;;;;27.92;39.16;101835.47;5053049;28;20041;-76
2021/09/16 11:29:57;;;;;;;1.80;1.30;;;;;;;28.51;37.66;101824.94;5050773;28;20104;-77
2021/09/16 11:32:36;;;;;;;3.45;1.20;;;;;;;28.48;37.81;101825.06;5054337;28;20037;-75
2021/09/16 11:35:12;;;;;;;4.18;1.40;;;;;;;28.72;38.60;101827.69;5055753;28;20029;-75
2021/09/16 11:37:47;;;;;;;3.97;1.67;;;;;;;29.12;37.43;101835.84;5045924;28;20024;-77
2021/09/16 11:40:19;;;;;;;3.80;2.28;;;;;;;29.54;34.70;101827.53;5050977;28;20030;-76
2021/09/16 11:42:47;;;;;;;3.35;2.10;;;;;;;29.45;35.35;101828.00;5055010;28;20037;-76
2021/09/16 11:45:20;;;;;;;3.75;2.15;;;;;;;29.07;36.08;101825.19;5051717;28;20488;-75
2021/09/16 11:48:20;;;;;;;5.03;2.13;;;;;;;28.82;36.49;101826.31;5056483;28;20032;-78
2021/09/16 11:50:59;;;;;;;3.90;2.28;;;;;;;28.74;36.06;101820.38;5035342;28;20134;-76
2021/09/16 11:53:31;;;;;;;6.82;3.63;;;;;;;28.24;40.61;101827.91;5047830;28;20033;-76
2021/09/16 11:56:02;;;;;;;4.22;2.70;;;;;;;28.10;38.15;101824.88;5052373;28;20380;-75
2021/09/16 11:58:31;;;;;;;6.90;3.05;;;;;;;28.21;39.21;101828.00;5050868;28;20024;-76
2021/09/16 12:01:00;;;;;;;5.32;3.72;;;;;;;28.26;39.39;101831.41;5037534;28;20117;-76
2021/09/16 12:03:31;;;;;;;5.65;4.30;;;;;;;28.62;37.86;101829.00;5055550;28;20948;-76
2021/09/16 12:06:04;;;;;;;5.43;3.70;;;;;;;28.69;37.01;101833.22;5054636;28;20040;-76
2021/09/16 12:08:32;;;;;;;6.75;3.92;;;;;;;28.71;41.68;101836.75;5054784;28;20087;-77
2021/09/16 12:10:59;;;;;;;6.03;3.88;;;;;;;29.02;42.66;101835.41;5038295;28;20053;-75
2021/09/16 12:13:34;;;;;;;5.82;3.72;;;;;;;28.97;39.67;101821.16;5033871;28;20029;-76
2021/09/16 12:16:06;;;;;;;5.75;3.90;;;;;;;29.00;37.40;101815.59;5034171;28;20049;-74
2021/09/16 12:18:34;;;;;;;6.88;4.80;;;;;;;27.85;43.75;101831.28;5041588;28;21636;-76
2021/09/16 12:21:01;;;;;;;11.23;5.55;;;;;;;27.77;40.03;101822.59;5038115;28;20498;-77
2021/09/16 12:23:27;;;;;;;8.02;5.03;;;;;;;27.90;39.68;101826.56;5058392;28;20483;-76
2021/09/16 12:26:02;;;;;;;8.10;5.68;;;;;;;27.46;38.56;101814.81;5037417;28;20387;-76
2021/09/16 12:28:29;;;;;;;6.90;5.30;;;;;;;26.29;43.64;101822.56;5038251;28;20021;-75
2021/09/16 12:30:54;;;;;;;7.05;5.10;;;;;;;25.87;43.04;101822.09;5036439;28;20033;-75
2021/09/16 12:33:29;;;;;;;6.47;5.30;;;;;;;25.86;43.97;101835.63;5040050;28;20363;-75
2021/09/16 12:36:11;;;;;;;8.32;5.30;;;;;;;26.33;42.52;101833.22;5040263;28;20114;-75
2021/09/16 12:38:42;;;;;;;8.40;6.43;;;;;;;26.90;41.56;101830.34;5042111;28;20450;-74
2021/09/16 12:41:29;;;;;;;9.77;5.53;;;;;;;26.75;43.63;101826.38;5042593;28;20029;-76
2021/09/16 12:44:01;;;;;;;7.72;5.80;;;;;;;27.00;41.71;101826.38;5038062;28;20091;-75
2021/09/16 12:46:28;;;;;;;8.23;6.05;;;;;;;27.14;43.25;101831.25;5044956;28;20033;-76
2021/09/16 12:48:54;;;;;;;8.48;6.60;;;;;;;26.01;42.70;101813.53;5039634;28;20037;-75
2021/09/16 12:51:23;;;;;;;8.00;6.72;;;;;;;25.54;43.67;101819.53;5037583;28;20028;-76
2021/09/16 12:53:50;;;;;;;12.13;6.40;;;;;;;24.95;46.11;101820.31;5041139;28;20029;-76
2021/09/16 12:56:17;;;;;;;11.18;6.95;;;;;;;25.51;47.93;101824.13;5040323;28;20510;-74
2021/09/16 12:58:42;;;;;;;6.38;5.78;;;;;;;26.20;46.30;101830.03;5045529;28;20035;-75
2021/09/16 13:01:08;;;;;;;7.90;6.50;;;;;;;26.65;43.15;101822.22;5040262;28;20100;-73
2021/09/16 13:03:34;;;;;;;9.70;6.70;;;;;;;25.71;45.93;101834.28;5041771;28;20029;-75
2021/09/16 13:06:12;;;;;;;9.15;7.38;;;;;;;25.37;46.09;101838.03;5035866;28;20543;-73
2021/09/16 13:08:42;;;;;;;13.00;7.63;;;;;;;24.94;45.92;101831.16;5035599;28;20029;-74
2021/09/16 13:11:24;;;;;;;11.48;8.35;;;;;;;24.39;48.72;101840.63;5034794;28;20386;-74
2021/09/16 13:14:05;;;;;;;10.63;8.18;;;;;;;24.34;50.72;101839.84;5027361;28;20094;-76
2021/09/16 13:16:32;;;;;;;11.40;8.80;;;;;;;24.20;51.55;101837.50;5036511;28;20045;-74
2021/09/16 13:18:58;;;;;;;12.88;8.25;;;;;;;24.34;52.36;101844.34;5035628;28;20053;-75
2021/09/16 13:21:23;;;;;;;12.98;9.65;;;;;;;24.61;50.01;101836.47;5031499;28;20405;-74
2021/09/16 13:23:49;;;;;;;17.85;8.65;;;;;;;25.51;47.72;101840.28;5033213;28;20033;-73
2021/09/16 13:26:15;;;;;;;10.65;8.20;;;;;;;25.88;45.05;101831.97;5037034;28;20436;-75
2021/09/16 13:28:40;;;;;;;9.95;8.50;;;;;;;26.37;43.63;101825.88;5036996;28;20051;-74
2021/09/16 13:31:05;;;;;;;9.88;7.20;;;;;;;26.62;43.45;101817.81;5047679;28;20375;-73
2021/09/16 13:33:31;;;;;;;10.18;8.40;;;;;;;26.89;43.64;101826.78;5056299;28;20032;-75
2021/09/16 13:35:57;;;;;;;10.70;8.50;;;;;;;27.62;41.37;101823.19;5057667;28;20070;-76
2021/09/16 13:38:22;;;;;;;13.02;8.68;;;;;;;27.70;41.26;101815.66;5054453;28;20104;-75
2021/09/16 13:40:48;;;;;;;14.40;9.30;;;;;;;27.57;41.69;101808.03;5051972;28;20487;-75
2021/09/16 13:43:13;;;;;;;12.07;8.45;;;;;;;28.39;40.25;101803.81;5061174;28;20109;-73
2021/09/16 13:45:39;;;;;;;11.80;8.63;;;;;;;28.34;39.86;101811.25;5063463;28;20039;-74
2021/09/16 13:48:05;;;;;;;11.43;8.23;;;;;;;27.99;40.25;101800.94;5058082;28;20547;-76
2021/09/16 13:50:30;;;;;;;9.18;7.18;;;;;;;28.61;38.06;101803.78;5059117;28;20029;-75
2021/09/16 13:52:56;;;;;;;9.57;7.60;;;;;;;28.47;39.81;101803.47;5057444;28;20037;-75
2021/09/16 13:55:23;;;;;;;8.63;7.30;;;;;;;29.12;38.54;101804.19;5060956;28;20033;-75
2021/09/16 13:57:48;;;;;;;14.00;8.60;;;;;;;28.67;39.54;101808.06;5056538;28;20682;-74
2021/09/16 14:00:15;;;;;;;11.18;8.32;;;;;;;28.63;38.82;101796.44;5049113;28;20083;-75
2021/09/16 14:02:41;;;;;;;10.35;7.57;;;;;;;27.46;41.24;101812.13;5054571;28;20078;-74
2021/09/16 14:05:08;;;;;;;14.13;8.60;;;;;;;26.78;42.19;101799.28;5059633;28;20478;-75
2021/09/16 14:07:34;;;;;;;9.38;6.50;;;;;;;26.40;42.79;101798.81;5058809;28;20025;-74
2021/09/16 14:09:59;;;;;;;9.45;6.20;;;;;;;25.64;45.39;101809.34;5055961;28;20032;-74
2021/09/16 14:12:25;;;;;;;8.18;6.25;;;;;;;25.58;44.04;101805.03;5053066;28;20033;-74
2021/09/16 14:14:50;;;;;;;6.95;6.25;;;;;;;24.64;47.17;101804.16;5050606;28;20041;-74
2021/09/16 14:17:16;;;;;;;7.97;6.72;;;;;;;24.61;47.57;101806.84;5059566;28;20275;-76
2021/09/16 14:19:42;;;;;;;12.10;6.70;;;;;;;24.27;49.06;101819.41;5055230;28;20060;-75
2021/09/16 14:22:07;;;;;;;7.50;6.38;;;;;;;23.98;49.07;101812.91;5051577;28;20471;-75
2021/09/16 14:24:33;;;;;;;9.55;7.25;;;;;;;23.93;48.68;101812.16;5052155;28;20390;-74
2021/09/16 14:26:58;;;;;;;9.05;6.28;;;;;;;23.87;49.16;101807.75;5048872;28;20057;-75
2021/09/16 14:29:23;;;;;;;10.13;7.00;;;;;;;23.94;47.83;101808.53;5050209;28;20028;-74
2021/09/16 14:31:49;;;;;;;7.63;5.88;;;;;;;23.56;47.64;101797.75;5047698;28;20647;-75
2021/09/16 14:34:15;;;;;;;7.28;6.30;;;;;;;23.44;49.26;101798.03;5047804;28;20112;-75
2021/09/16 14:36:43;;;;;;;9.35;7.20;;;;;;;23.03;50.71;101803.31;5048188;28;20068;-75
2021/09/16 14:39:09;;;;;;;10.60;7.72;;;;;;;23.00;52.68;101806.06;5044339;28;20094;-76
2021/09/16 14:41:35;;;;;;;9.25;5.95;;;;;;;22.88;52.39;101804.53;5047126;28;20029;-74
2021/09/16 14:44:00;;;;;;;11.50;7.30;;;;;;;22.82;52.16;101810.00;5043842;28;20063;-75
2021/09/16 14:46:26;;;;;;;12.95;7.88;;;;;;;22.52;53.47;101812.34;5049148;28;20078;-75
2021/09/16 14:48:51;;;;;;;7.15;5.72;;;;;;;22.53;53.30;101814.09;5041122;28;20096;-74
2021/09/16 14:51:16;;;;;;;8.00;5.95;;;;;;;22.39;53.13;101810.78;5032175;28;20048;-76
2021/09/16 14:53:42;;;;;;;8.00;6.05;;;;;;;22.49;51.88;101806.13;5033171;28;20074;-74
2021/09/16 14:56:07;;;;;;;9.23;6.57;;;;;;;22.33;53.24;101801.00;5038315;28;20025;-75
2021/09/16 14:58:33;;;;;;;9.07;6.00;;;;;;;22.19;54.26;101814.66;5041399;28;20352;-75
2021/09/16 15:00:58;;;;;;;6.95;5.38;;;;;;;22.16;53.39;101813.81;5038421;28;20433;-74
2021/09/16 15:03:24;;;;;;;7.68;6.68;;;;;;;22.02;54.49;101816.72;5037079;28;20116;-75
2021/09/16 15:05:49;;;;;;;9.30;6.53;;;;;;;22.04;55.00;101812.19;5043813;28;20104;-74
2021/09/16 15:08:15;;;;;;;7.88;6.25;;;;;;;22.03;55.00;101813.09;5041683;28;20026;-75
2021/09/16 15:10:40;;;;;;;11.10;7.05;;;;;;;21.85;56.22;101820.53;5044807;28;20498;-74
2021/09/16 15:13:06;;;;;;;9.77;7.10;;;;;;;21.78;56.27;101812.63;5042706;28;20470;-75
2021/09/16 15:15:32;;;;;;;18.23;7.38;;;;;;;21.75;57.71;101818.03;5042415;28;20045;-75
2021/09/16 15:17:58;;;;;;;9.18;7.63;;;;;;;21.73;56.79;101821.59;5035838;28;20032;-75
2021/09/16 15:20:24;;;;;;;13.70;9.40;;;;;;;21.70;56.52;101820.75;5036892;28;20040;-74
2021/09/16 15:22:50;;;;;;;10.63;9.07;;;;;;;21.66;56.93;101822.59;5035832;28;20017;-74
2021/09/16 15:25:16;;;;;;;13.70;11.70;;;;;;;21.42;56.44;101814.84;5038363;28;20086;-73
2021/09/16 15:27:42;;;;;;;18.67;11.82;;;;;;;21.33;56.46;101823.91;5028029;28;20055;-74
2021/09/16 15:30:08;;;;;;;16.40;12.15;;;;;;;21.18;56.90;101823.19;5037021;28;20029;-75
2021/09/16 15:32:34;;;;;;;15.75;12.60;;;;;;;21.08;57.20;101809.91;5049225;28;20036;-75
2021/09/16 15:35:00;;;;;;;12.75;10.90;;;;;;;21.02;58.16;101816.22;5045659;28;20025;-74
2021/09/16 15:37:25;;;;;;;18.88;14.75;;;;;;;20.92;57.71;101825.25;5054341;28;20352;-74
2021/09/16 15:39:51;;;;;;;20.05;15.63;;;;;;;20.87;59.06;101820.84;5056283;28;20076;-76
2021/09/16 15:42:16;;;;;;;16.27;13.40;;;;;;;20.76;60.37;101822.75;5060107;28;20028;-76
2021/09/16 15:44:42;;;;;;;21.55;16.23;;;;;;;20.70;60.45;101829.06;5057371;28;20498;-74
2021/09/16 15:47:07;;;;;;;19.63;15.38;;;;;;;20.66;61.15;101826.38;5054155;28;20440;-73
2021/09/16 15:49:34;;;;;;;19.67;15.77;;;;;;;20.64;60.76;101823.72;5044089;28;20033;-75
2021/09/16 15:52:03;;;;;;;20.65;15.13;;;;;;;20.52;62.36;101835.44;5060806;28;20040;-76
2021/09/16 15:54:36;;;;;;;21.48;16.67;;;;;;;20.46;60.32;101826.59;5057474;28;20074;-75
2021/09/16 15:57:02;;;;;;;;;;;;;;;20.42;61.00;101832.88;5050423;28;20044;-76
2021/09/16 15:59:27;;;;;;;19.02;14.77;;;;;;;20.36;61.21;101841.78;5057707;28;19955;-76
2021/09/16 16:01:53;;;;;;;22.92;17.33;;;;;;;20.24;62.96;101837.47;5052241;28;20035;-74
2021/09/16 16:04:18;;;;;;;22.67;15.50;;;;;;;20.20;62.72;101839.25;5056161;28;20029;-75
2021/09/16 16:06:43;;;;;;;21.73;17.20;;;;;;;20.15;63.30;101843.75;5053448;28;20040;-74
2021/09/16 16:09:09;;;;;;;18.75;15.50;;;;;;;20.11;64.00;101846.47;5057147;28;20073;-76
2021/09/16 16:11:35;;;;;;;21.52;16.88;;;;;;;20.09;64.24;101843.81;5059229;28;20028;-75
2021/09/16 16:14:02;;;;;;;24.98;17.83;;;;;;;20.05;64.93;101848.28;5059146;28;20112;-73
2021/09/16 16:16:29;;;;;;;25.98;17.23;;;;;;;20.03;64.63;101843.84;5062645;28;20080;-74
2021/09/16 16:18:57;;;;;;;27.85;17.98;;;;;;;19.99;65.96;101847.44;5062570;28;20098;-74
2021/09/16 16:21:22;;;;;;;25.95;18.67;;;;;;;19.95;65.56;101843.00;5056901;28;20036;-75
2021/09/16 16:23:51;;;;;;;21.30;16.13;;;;;;;19.97;65.21;101844.75;5053235;28;20475;-75
2021/09/16 16:26:17;;;;;;;22.95;16.48;;;;;;;19.84;65.65;101848.41;5053849;28;20403;-75
2021/09/16 16:28:44;;;;;;;30.05;19.83;;;;;;;19.66;66.59;101844.03;5060874;28;20047;-75
2021/09/16 16:31:09;;;;;;;25.13;17.98;;;;;;;19.51;67.12;101853.88;5051640;28;20035;-76
2021/09/16 16:33:35;;;;;;;26.67;18.17;;;;;;;19.40;67.76;101847.72;5055893;28;20029;-76
2021/09/16 16:36:00;;;;;;;28.55;18.98;;;;;;;19.33;68.14;101849.50;5057010;28;20021;-74
2021/09/16 16:38:26;;;;;;;27.60;19.15;;;;;;;19.25;68.27;101850.41;5054172;28;20028;-75
2021/09/16 16:40:53;;;;;;;24.25;18.17;;;;;;;19.26;67.90;101850.44;5059658;28;20066;-74
2021/09/16 16:43:19;;;;;;;23.83;16.88;;;;;;;19.31;67.63;101855.75;5054595;28;20040;-73
2021/09/16 16:45:45;;;;;;;27.52;17.98;;;;;;;19.26;67.72;101846.84;5055805;28;20489;-75
2021/09/16 16:48:11;;;;;;;23.30;17.83;;;;;;;19.22;67.94;101845.97;5056303;28;20173;-76
2021/09/16 16:50:37;;;;;;;23.30;18.13;;;;;;;19.17;68.98;101851.34;5055024;28;20407;-80
2021/09/16 16:53:03;;;;;;;33.22;21.30;;;;;;;19.18;69.13;101860.22;5056503;28;20394;-72
2021/09/16 16:55:28;;;;;;;30.33;19.58;;;;;;;19.09;69.42;101862.94;5057903;28;20028;-72
2021/09/16 16:57:57;;;;;;;24.70;20.05;;;;;;;18.99;70.40;101868.28;5058685;28;20025;-71
2021/09/16 17:00:23;;;;;;;27.73;20.70;;;;;;;18.89;70.66;101870.97;5051824;28;20041;-74
2021/09/16 17:02:48;;;;;;;26.92;19.98;;;;;;;18.88;70.72;101864.72;5059765;28;20424;-71
2021/09/16 17:05:14;;;;;;;25.60;19.70;;;;;;;18.78;71.70;101869.16;5057536;28;20021;-75
2021/09/16 17:07:39;;;;;;;22.15;16.83;;;;;;;18.73;71.66;101864.72;5046046;28;24090;-77
2021/09/16 17:10:06;;;;;;;28.40;20.58;;;;;;;18.61;72.26;101857.63;5047312;28;20047;-76
2021/09/16 17:12:33;;;;;;;24.52;19.88;;;;;;;18.56;72.72;101875.38;5049531;28;20021;-77
2021/09/16 17:14:59;;;;;;;26.65;19.05;;;;;;;18.51;72.56;101870.94;5047781;28;20045;-75
2021/09/16 17:17:24;;;;;;;29.40;21.38;;;;;;;18.48;72.96;101870.09;5048655;28;20082;-76
2021/09/16 17:19:50;;;;;;;31.88;20.35;;;;;;;18.42;73.35;101870.06;5050085;28;20500;-76
2021/09/16 17:22:15;;;;;;;29.90;22.58;;;;;;;18.37;73.51;101864.75;5049518;28;20027;-75
2021/09/16 17:24:41;;;;;;;27.52;20.08;;;;;;;18.33;73.87;101865.63;5044622;28;20036;-77
2021/09/16 17:27:06;;;;;;;33.72;22.27;;;;;;;18.24;74.57;101871.81;5047512;28;20029;-77
2021/09/16 17:29:32;;;;;;;33.25;21.90;;;;;;;18.19;74.79;101870.91;5048820;28;20056;-76
2021/09/16 17:31:57;;;;;;;26.73;18.63;;;;;;;18.17;74.55;101867.38;5048612;28;20025;-74
2021/09/16 17:34:22;;;;;;;25.85;19.35;;;;;;;18.12;74.52;101861.16;5048985;28;20029;-74
2021/09/16 17:36:48;;;;;;;29.73;20.98;;;;;;;18.07;74.77;101863.81;5051460;28;20036;-77
2021/09/16 17:39:14;;;;;;;28.10;21.05;;;;;;;17.97;75.14;101867.34;5050925;28;20502;-77
2021/09/16 17:41:39;;;;;;;26.20;18.30;;;;;;;17.92;75.39;101870.00;5044380;28;20371;-75
2021/09/16 17:44:06;;;;;;;28.30;20.85;;;;;;;17.83;76.00;101870.81;5047274;28;20016;-76
2021/09/16 17:46:32;;;;;;;32.30;23.40;;;;;;;17.72;76.37;101863.72;5050146;28;20114;-75
2021/09/16 17:48:57;;;;;;;31.27;20.85;;;;;;;17.64;77.28;101874.31;5051245;28;20190;-75
2021/09/16 17:51:23;;;;;;;31.95;23.83;;;;;;;17.51;77.73;101868.03;5050036;28;20537;-75
2021/09/16 17:53:48;;;;;;;32.30;23.00;;;;;;;17.47;77.78;101861.84;5052052;28;20017;-74
2021/09/16 17:56:14;;;;;;;33.55;22.88;;;;;;;17.39;77.84;101863.56;5048886;28;20103;-74
2021/09/16 17:58:39;;;;;;;36.42;23.50;;;;;;;17.31;78.38;101866.19;5048162;28;20146;-75
2021/09/16 18:01:05;;;;;;;37.50;21.80;;;;;;;17.25;78.79;101870.59;5039950;28;20041;-75
2021/09/16 18:03:31;;;;;;;38.63;25.15;;;;;;;17.17;78.75;101868.78;5040395;28;20424;-76
2021/09/16 18:06:08;;;;;;;32.88;22.77;;;;;;;17.06;79.69;101878.44;5046402;28;20040;-75
2021/09/16 18:08:34;;;;;;;35.95;24.60;;;;;;;16.94;80.05;101876.63;5052594;28;20163;-75
2021/09/16 18:10:59;;;;;;;38.65;24.52;;;;;;;16.87;80.64;101874.75;5049531;28;20095;-77
2021/09/16 18:13:25;;;;;;;32.70;23.20;;;;;;;16.85;80.60;101880.06;5060347;28;20036;-76
2021/09/16 18:15:50;;;;;;;31.95;21.90;;;;;;;16.82;80.90;101880.03;5056219;28;20040;-75
2021/09/16 18:18:16;;;;;;;36.42;25.05;;;;;;;16.77;81.31;101880.91;5053940;28;20021;-77
2021/09/16 18:20:41;;;;;;;36.60;24.92;;;;;;;16.70;81.53;101890.59;5058988;28;20024;-77
2021/09/16 18:23:06;;;;;;;29.80;20.42;;;;;;;16.64;81.72;101893.19;5054446;28;20051;-78
2021/09/16 18:25:33;;;;;;;33.22;22.55;;;;;;;16.57;82.08;101892.22;5052902;28;20420;-77
2021/09/16 18:27:58;;;;;;;34.58;22.98;;;;;;;16.46;82.88;101886.81;5047856;28;20021;-76
2021/09/16 18:30:24;;;;;;;36.85;23.52;;;;;;;16.36;83.33;101887.63;5052159;28;20093;-76
2021/09/16 18:32:52;;;;;;;39.55;25.75;;;;;;;16.27;83.94;101890.19;5055130;28;20036;-75
2021/09/16 18:35:18;;;;;;;36.85;25.38;;;;;;;16.19;84.38;101898.09;5056476;28;20029;-76
2021/09/16 18:37:43;;;;;;;37.45;25.33;;;;;;;16.13;84.74;101890.06;5061244;28;20413;-77
2021/09/16 18:40:10;;;;;;;35.67;24.40;;;;;;;16.08;84.74;101887.34;5058074;28;20028;-75